Burr, Nebraska
Current Conditions -  °F | °C
As of 1:15 PM on Monday 22 Dec 2014 (Local Time) from KAFK Reporting Station
Light Rain Light Rain  
Wind Chill: 43°   Ceiling: 400
Heat Index: 43°   Visibility: 5mi
Dew Point: 43°   Wind: 3mph
Humidity: 100%   Direction: 210°SSW
Pressure: 29.41"   Gusts: NA
Location:  40.54°N, 96.3°W
Report Text: KAFK 221915Z AUTO 21003KT 5SM -RA BKN004 BKN009 OVC019 06/06 A2941 RMK AO2 P0001 T00600060
Loading
Personal Weather Stations






























Interactive Weather Map New forecast layout! Learn more

10-Day Weather Forecast

Advertisements
Track Severe Weather on mobile